Time;durP1;ratioP1;P1;durP2;ratioP2;P2;SDS_P1;SDS_P2;PMS_P1;PMS_P2;Temp;Humidity;BMP_temperature;BMP_pressure;BME280_temperature;BME280_humidity;BME280_pressure;Samples;Min_cycle;Max_cycle;Signal;HPM_P1;HPM_P2
2022/01/28 00:00:49;;;;;;;14.15;2.28;;;;;;;3.57;89.15;103002.59;4788713;30;20062;-81
2022/01/28 00:03:16;;;;;;;15.85;2.30;;;;;;;3.33;88.35;102972.75;4788619;30;20438;-81
2022/01/28 00:05:41;;;;;;;12.25;2.22;;;;;;;3.50;88.29;103012.78;4806491;29;20091;-81
2022/01/28 00:08:07;;;;;;;18.90;2.75;;;;;;;3.27;88.16;102988.06;4807160;29;20043;-80
2022/01/28 00:10:33;;;;;;;12.30;1.85;;;;;;;3.43;88.09;103017.88;4806862;29;20023;-81
2022/01/28 00:15:39;;;;;;;13.32;2.38;;;;;;;3.21;88.21;103007.63;4806576;29;20122;-81
2022/01/28 00:21:05;;;;;;;11.48;2.17;;;;;;;3.24;88.99;103031.47;4841434;24;20053;-82
2022/01/28 00:39:41;;;;;;;17.15;3.13;;;;;;;2.95;91.05;103010.09;4788163;30;20396;-81
2022/01/28 00:42:07;;;;;;;15.50;2.80;;;;;;;3.09;91.35;103031.44;4788057;30;20038;-81
2022/01/28 00:44:32;;;;;;;16.73;3.35;;;;;;;3.05;91.32;103032.28;4787408;29;20062;-82
2022/01/28 00:46:58;;;;;;;16.75;2.80;;;;;;;3.11;91.52;103040.78;4788056;30;20031;-81
2022/01/28 00:49:24;;;;;;;20.80;2.72;;;;;;;2.93;91.30;103006.69;4787808;30;20028;-81
2022/01/28 00:51:51;;;;;;;16.98;1.95;;;;;;;2.98;91.21;103010.97;4788459;30;20046;-81
2022/01/28 00:54:20;;;;;;;15.88;2.28;;;;;;;3.14;91.59;103047.59;4788387;30;20814;-81
2022/01/28 00:56:46;;;;;;;14.45;2.28;;;;;;;3.22;91.35;103047.63;4788124;30;20027;-81
2022/01/28 00:59:12;;;;;;;15.32;2.00;;;;;;;3.25;90.89;103043.41;4788166;30;20027;-80
2022/01/28 01:01:38;;;;;;;20.35;3.15;;;;;;;3.18;90.50;103018.69;4788316;30;20032;-79
2022/01/28 01:04:04;;;;;;;16.70;2.20;;;;;;;3.39;89.71;103034.06;4787899;30;20046;-80
2022/01/28 01:06:30;;;;;;;10.73;1.98;;;;;;;3.44;89.40;103041.72;4787946;30;20047;-81
2022/01/28 01:08:56;;;;;;;14.25;2.70;;;;;;;3.47;89.86;103044.31;4786942;30;20442;-81
2022/01/28 01:11:23;;;;;;;13.82;2.58;;;;;;;3.17;89.48;102986.34;4787912;30;20027;-81
2022/01/28 01:13:50;;;;;;;19.33;2.70;;;;;;;3.37;89.08;103020.44;4788132;30;20038;-81
2022/01/28 01:16:21;;;;;;;21.10;2.10;;;;;;;3.54;89.35;103038.38;4787854;29;20027;-81
2022/01/28 01:21:37;;;;;;;15.32;2.65;;;;;;;3.58;88.82;103046.88;4788103;30;20174;-81
2022/01/28 01:24:02;;;;;;;17.02;2.20;;;;;;;3.55;89.33;103052.84;4787796;30;20047;-81
2022/01/28 01:26:33;;;;;;;13.38;2.67;;;;;;;3.38;89.10;103017.03;4787984;30;20045;-82
2022/01/28 01:28:59;;;;;;;22.87;3.07;;;;;;;3.47;89.27;103034.09;4787891;30;20062;-81
2022/01/28 01:31:25;;;;;;;20.25;2.72;;;;;;;3.33;88.98;103021.28;4787519;30;20348;-81
2022/01/28 01:33:58;;;;;;;23.83;3.10;;;;;;;3.37;89.28;103032.38;4787769;30;20123;-81
2022/01/28 01:36:24;;;;;;;17.80;3.15;;;;;;;3.34;89.22;103027.22;4788031;30;20047;-80
2022/01/28 01:38:49;;;;;;;15.40;3.28;;;;;;;3.55;89.05;103060.50;4787616;30;20032;-81
2022/01/28 01:41:24;;;;;;;11.70;2.10;;;;;;;3.59;89.16;103085.19;4787810;30;20024;-80
2022/01/28 01:54:11;;;;;;;14.73;1.90;;;;;;;3.37;89.39;103076.63;4787883;30;20065;-81
2022/01/28 01:56:39;;;;;;;13.88;3.22;;;;;;;3.53;89.48;103122.63;4789227;29;20035;-80
2022/01/28 01:59:07;;;;;;;14.95;2.33;;;;;;;3.38;89.61;103092.81;4790952;30;20061;-80
2022/01/28 02:01:32;;;;;;;18.38;3.58;;;;;;;3.38;89.62;103103.88;4790576;29;20098;-81
2022/01/28 02:03:58;;;;;;;18.13;2.08;;;;;;;3.48;89.96;103126.88;4789789;30;20118;-79
2022/01/28 02:06:23;;;;;;;15.82;2.10;;;;;;;3.38;90.18;103115.78;4790745;30;20035;-80
2022/01/28 02:08:49;;;;;;;15.45;2.10;;;;;;;3.45;90.49;103132.84;4790853;30;20035;-81
2022/01/28 02:11:14;;;;;;;20.58;3.63;;;;;;;3.26;90.56;103102.97;4790742;30;20532;-81
2022/01/28 02:13:40;;;;;;;21.00;2.40;;;;;;;3.37;90.28;103129.41;4790415;30;20039;-81
2022/01/28 02:16:07;;;;;;;16.95;2.65;;;;;;;3.40;91.11;103121.75;4790856;29;20035;-81
2022/01/28 02:26:31;;;;;;;17.60;2.17;;;;;;;3.50;90.80;103131.16;4921960;24;20508;-80
2022/01/28 02:28:58;;;;;;;21.77;2.53;;;;;;;3.55;90.51;103142.25;4790643;30;20043;-81
2022/01/28 02:31:27;;;;;;;15.93;2.95;;;;;;;3.56;90.72;103141.41;4790430;29;20023;-80
2022/01/28 02:33:55;;;;;;;17.20;2.42;;;;;;;3.39;91.09;103113.22;4774242;30;20031;-81
2022/01/28 02:36:21;;;;;;;12.82;2.05;;;;;;;3.49;90.52;103142.22;4790378;30;20019;-79
2022/01/28 02:38:46;;;;;;;13.75;2.53;;;;;;;3.39;90.89;103120.03;4790255;30;20060;-81
2022/01/28 02:41:12;;;;;;;17.88;2.97;;;;;;;3.51;91.10;103149.88;4790510;30;20031;-81
2022/01/28 02:43:59;;;;;;;12.55;2.08;;;;;;;3.48;90.83;103144.78;4790249;30;20023;-81
2022/01/28 02:46:27;;;;;;;11.95;2.10;;;;;;;3.37;91.49;103124.31;4789993;29;20480;-80
2022/01/28 02:49:01;;;;;;;17.48;3.13;;;;;;;3.49;91.06;103146.47;4789054;30;20038;-80
2022/01/28 02:51:26;;;;;;;18.27;2.53;;;;;;;3.29;91.11;103119.16;4788931;30;20076;-80
2022/01/28 02:53:58;;;;;;;12.48;2.47;;;;;;;3.55;91.38;103162.69;4789034;30;20035;-80
2022/01/28 02:56:37;;;;;;;19.15;2.40;;;;;;;3.53;90.90;103160.94;4789908;30;20161;-80
2022/01/28 02:59:03;;;;;;;16.25;2.53;;;;;;;3.55;91.40;103161.84;4790096;30;20050;-79
2022/01/28 03:01:29;;;;;;;13.88;1.90;;;;;;;3.32;91.03;103139.59;4789880;29;20471;-80
2022/01/28 03:03:56;;;;;;;19.33;2.28;;;;;;;3.45;91.35;103171.16;4789897;30;20027;-81
2022/01/28 03:06:21;;;;;;;17.52;3.78;;;;;;;3.40;91.58;103165.16;4789939;29;20035;-80
2022/01/28 03:08:55;;;;;;;18.42;3.10;;;;;;;3.41;92.09;103177.09;4789996;30;20122;-80
2022/01/28 03:16:27;;;;;;;16.05;2.65;;;;;;;3.36;92.00;103176.22;4789613;30;20035;-80
2022/01/28 03:18:57;;;;;;;13.85;2.38;;;;;;;3.26;92.25;103164.25;4789702;30;20113;-81
2022/01/28 03:23:49;;;;;;;14.20;2.25;;;;;;;3.13;92.68;103148.84;4789749;30;20050;-80
2022/01/28 03:26:15;;;;;;;19.45;2.80;;;;;;;3.35;92.77;103182.19;4789388;30;20419;-80
2022/01/28 03:28:41;;;;;;;19.05;2.80;;;;;;;3.30;93.17;103173.63;4789564;30;20104;-80
2022/01/28 03:31:06;;;;;;;13.48;1.98;;;;;;;3.28;93.10;103177.88;4789449;30;20509;-81
2022/01/28 03:33:32;;;;;;;15.73;2.45;;;;;;;3.22;93.61;103171.03;4789432;29;20039;-81
2022/01/28 03:35:57;;;;;;;18.40;2.35;;;;;;;3.18;93.88;103174.44;4789565;30;20031;-81
2022/01/28 03:38:23;;;;;;;19.55;2.47;;;;;;;3.11;93.77;103168.44;4789401;30;20031;-81
2022/01/28 03:40:50;;;;;;;14.00;1.83;;;;;;;3.12;94.09;103187.16;4789359;30;20424;-80
2022/01/28 03:43:16;;;;;;;17.38;3.17;;;;;;;2.87;94.36;103156.38;4789307;30;20038;-81
2022/01/28 03:45:41;;;;;;;13.20;2.00;;;;;;;3.04;94.91;103196.44;4788934;30;20035;-81
2022/01/28 03:48:06;;;;;;;19.67;3.20;;;;;;;2.87;94.70;103171.69;4789287;30;20444;-80
2022/01/28 03:50:34;;;;;;;15.10;2.15;;;;;;;2.74;95.03;103169.88;4789295;30;20054;-81
2022/01/28 03:53:03;;;;;;;14.18;2.70;;;;;;;2.79;95.41;103191.19;4789219;30;20377;-80
2022/01/28 03:55:29;;;;;;;14.02;2.38;;;;;;;2.69;95.73;103188.56;4789041;30;20122;-80
2022/01/28 03:57:56;;;;;;;17.65;2.13;;;;;;;2.66;96.06;103202.16;4789110;30;20058;-81
2022/01/28 04:00:26;;;;;;;11.95;2.90;;;;;;;2.59;96.17;103201.25;4788931;30;20506;-81
2022/01/28 04:02:58;;;;;;;13.75;2.30;;;;;;;2.58;97.48;103203.78;4788783;30;20035;-81
2022/01/28 04:11:28;;;;;;;18.33;2.10;;;;;;;2.42;97.58;103191.75;4786626;30;20475;-81
2022/01/28 04:13:55;;;;;;;20.27;2.40;;;;;;;2.37;97.81;103178.97;4787592;30;20035;-81
2022/01/28 04:18:47;;;;;;;17.60;2.45;;;;;;;2.56;98.32;103208.03;4786141;29;20420;-79
2022/01/28 04:21:13;;;;;;;17.80;3.45;;;;;;;2.39;98.21;103189.19;4786452;30;20050;-82
2022/01/28 04:23:38;;;;;;;18.50;2.50;;;;;;;2.54;98.30;103214.78;4786512;30;20035;-80
2022/01/28 04:26:04;;;;;;;19.23;2.40;;;;;;;2.38;98.61;103180.66;4786418;30;20078;-81
2022/01/28 04:28:29;;;;;;;20.42;3.70;;;;;;;2.44;98.46;103203.66;4786470;30;20056;-80
2022/01/28 04:30:54;;;;;;;18.48;2.80;;;;;;;2.37;99.27;103180.66;4786844;30;20072;-80
2022/01/28 04:33:20;;;;;;;20.08;2.50;;;;;;;2.22;99.45;103166.91;4786483;29;20182;-80
2022/01/28 04:35:48;;;;;;;25.55;3.63;;;;;;;2.55;99.51;103219.03;4786340;30;20086;-81
2022/01/28 04:40:52;;;;;;;20.52;2.20;;;;;;;2.45;100.00;103199.41;4786229;30;20522;-80
2022/01/28 04:43:27;;;;;;;15.70;2.30;;;;;;;2.58;100.00;103221.66;4771023;30;20047;-80
2022/01/28 04:48:58;;;;;;;15.27;2.35;;;;;;;2.69;100.00;103234.50;4713649;30;20128;-80
2022/01/28 04:57:05;;;;;;;21.05;2.63;;;;;;;2.64;100.00;103239.53;4663865;30;20137;-80
2022/01/28 05:02:28;;;;;;;17.38;2.40;;;;;;;2.61;100.00;103244.63;4663815;30;20101;-80
2022/01/28 05:28:48;;;;;;;16.67;2.58;;;;;;;2.28;100.00;103275.75;4715134;30;20041;-80
2022/01/28 05:31:15;;;;;;;15.10;2.92;;;;;;;2.16;100.00;103260.31;4743420;30;20054;-80
2022/01/28 05:33:41;;;;;;;15.65;2.47;;;;;;;2.28;100.00;103275.75;4771400;30;20040;-79
2022/01/28 05:36:06;;;;;;;19.17;3.13;;;;;;;2.28;100.00;103278.31;4756342;30;20078;-81
2022/01/28 05:38:34;;;;;;;16.10;3.00;;;;;;;2.15;100.00;103266.25;4771380;30;20477;-80
2022/01/28 05:41:00;;;;;;;23.25;3.65;;;;;;;2.24;100.00;103286.75;4771154;30;20412;-80
2022/01/28 05:43:25;;;;;;;17.65;3.95;;;;;;;2.17;100.00;103283.28;4771372;30;20039;-80
2022/01/28 05:45:50;;;;;;;14.23;3.17;;;;;;;2.12;100.00;103294.25;4771056;30;20047;-80
2022/01/28 05:48:19;;;;;;;12.95;3.28;;;;;;;2.15;100.00;103305.34;4791037;24;20051;-80
2022/01/28 05:50:45;;;;;;;17.05;2.60;;;;;;;1.89;100.00;103264.28;4791002;29;20421;-80
2022/01/28 05:53:10;;;;;;;18.88;2.60;;;;;;;1.86;100.00;103258.25;4790853;30;20031;-80
2022/01/28 05:55:36;;;;;;;18.67;3.38;;;;;;;2.04;100.00;103298.41;4790849;30;20074;-80
2022/01/28 05:58:02;;;;;;;18.52;3.58;;;;;;;1.99;100.00;103300.91;4790795;30;20039;-80
2022/01/28 06:00:27;;;;;;;15.30;2.35;;;;;;;1.94;100.00;103308.47;4790700;30;20030;-80
2022/01/28 06:02:53;;;;;;;13.00;3.33;;;;;;;1.80;100.00;103292.19;4790843;30;20087;-80
2022/01/28 06:05:18;;;;;;;16.98;3.22;;;;;;;1.84;100.00;103316.00;4790558;30;20065;-80
2022/01/28 06:07:44;;;;;;;20.13;3.33;;;;;;;1.89;100.00;103327.13;4790692;30;20043;-80
2022/01/28 06:10:11;;;;;;;18.77;3.17;;;;;;;1.86;100.00;103333.00;4790859;30;20063;-81
2022/01/28 06:12:42;;;;;;;19.52;3.53;;;;;;;1.58;100.00;103293.59;4790667;30;20039;-80
2022/01/28 06:15:08;;;;;;;18.30;2.53;;;;;;;1.80;100.00;103327.84;4797035;24;20063;-80
2022/01/28 06:17:33;;;;;;;15.00;2.38;;;;;;;1.64;100.00;103311.47;4790640;30;20062;-80
2022/01/28 06:19:59;;;;;;;21.55;2.80;;;;;;;1.61;100.00;103318.25;4790665;29;20063;-81
2022/01/28 06:22:24;;;;;;;12.45;2.20;;;;;;;1.53;100.00;103299.44;4790682;30;20031;-80
2022/01/28 06:24:49;;;;;;;13.15;2.38;;;;;;;1.53;100.00;103304.53;4790562;30;20081;-80
2022/01/28 06:27:15;;;;;;;17.67;2.53;;;;;;;1.51;100.00;103306.22;4789129;30;20388;-81
2022/01/28 06:29:40;;;;;;;14.48;2.88;;;;;;;1.54;100.00;103335.09;4790341;30;20031;-80
2022/01/28 06:32:06;;;;;;;18.20;3.40;;;;;;;1.39;100.00;103325.56;4790376;30;20063;-81
2022/01/28 06:34:33;;;;;;;24.13;3.10;;;;;;;1.39;100.00;103329.81;4789168;30;20042;-79
2022/01/28 06:36:58;;;;;;;20.92;3.33;;;;;;;1.51;100.00;103365.63;4789053;30;20027;-79
2022/01/28 06:39:24;;;;;;;15.25;2.85;;;;;;;1.34;100.00;103355.19;4790413;30;20092;-79
2022/01/28 06:41:49;;;;;;;15.10;2.40;;;;;;;1.24;100.00;103347.38;4789743;29;20107;-79
2022/01/28 06:44:14;;;;;;;18.02;2.53;;;;;;;1.26;100.00;103355.88;4774232;30;20428;-79
2022/01/28 06:46:40;;;;;;;15.02;2.58;;;;;;;1.19;100.00;103364.28;4790052;30;20028;-79
2022/01/28 06:49:07;;;;;;;14.70;2.50;;;;;;;1.08;100.00;103369.16;4790281;30;20058;-80
2022/01/28 06:51:34;;;;;;;18.30;3.95;;;;;;;1.12;100.00;103384.50;4773596;30;20479;-80
2022/01/28 06:54:01;;;;;;;13.15;2.88;;;;;;;1.14;100.00;103403.19;4789103;30;20050;-79
2022/01/28 06:56:26;;;;;;;10.77;2.60;;;;;;;1.06;100.00;103404.75;4788404;30;20046;-80
2022/01/28 06:58:51;;;;;;;15.23;3.60;;;;;;;0.97;100.00;103401.19;4789870;30;20043;-80
2022/01/28 07:01:17;;;;;;;16.52;3.78;;;;;;;0.89;100.00;103402.75;4789907;30;20112;-80
2022/01/28 07:03:42;;;;;;;19.70;4.65;;;;;;;0.81;100.00;103411.09;4789838;30;20035;-79
2022/01/28 07:06:07;;;;;;;14.52;3.88;;;;;;;0.83;100.00;103434.88;4789749;29;20039;-79
2022/01/28 07:08:33;;;;;;;17.13;4.07;;;;;;;0.80;100.00;103431.41;4789799;30;20111;-79
2022/01/28 07:10:58;;;;;;;17.58;6.50;;;;;;;0.45;100.00;103368.00;4789762;30;20035;-78
2022/01/28 07:13:23;;;;;;;19.90;6.80;;;;;;;0.60;100.00;103409.81;4789795;30;20035;-79
2022/01/28 07:15:51;;;;;;;27.60;13.23;;;;;;;0.60;100.00;103433.56;4789621;30;20101;-78
2022/01/28 07:18:17;;;;;;;29.20;15.63;;;;;;;0.36;100.00;103400.88;4788094;30;20049;-80
2022/01/28 07:20:42;;;;;;;26.08;12.52;;;;;;;0.42;100.00;103413.72;4789664;30;20484;-79
2022/01/28 07:23:07;;;;;;;28.70;13.15;;;;;;;0.54;100.00;103433.44;4789434;30;20031;-79
2022/01/28 07:25:32;;;;;;;24.45;10.80;;;;;;;0.35;100.00;103408.47;4789449;30;20028;-80
2022/01/28 07:27:58;;;;;;;23.05;10.10;;;;;;;0.27;100.00;103405.75;4789382;30;20027;-79
2022/01/28 07:30:24;;;;;;;25.25;9.07;;;;;;;0.36;100.00;103438.97;4789336;30;20032;-79
2022/01/28 07:32:51;;;;;;;23.40;9.07;;;;;;;0.21;100.00;103426.81;4789213;30;20031;-78
2022/01/28 07:35:22;;;;;;;17.38;7.75;;;;;;;0.25;100.00;103442.97;4789500;30;20023;-79
2022/01/28 07:38:10;;;;;;;19.95;6.53;;;;;;;0.36;100.00;103456.78;4796368;24;20380;-79
2022/01/28 07:40:51;;;;;;;18.60;5.53;;;;;;;-0.82;100.00;103257.78;4753128;30;20092;-80
2022/01/28 07:43:33;;;;;;;19.67;5.27;;;;;;;-0.79;100.00;103257.84;4753564;30;20040;-79
2022/01/28 07:45:58;;;;;;;13.95;5.00;;;;;;;-0.69;100.00;103290.22;4753461;30;20674;-79
2022/01/28 07:48:27;;;;;;;17.83;5.55;;;;;;;-0.95;100.00;103248.19;4752487;30;20090;-77
2022/01/28 07:50:52;;;;;;;17.48;4.97;;;;;;;0.34;100.00;103465.19;4753601;30;20485;-77
2022/01/28 07:53:24;;;;;;;24.65;5.97;;;;;;;0.33;100.00;103460.94;4752657;30;20082;-77
2022/01/28 07:55:52;;;;;;;22.08;6.18;;;;;;;0.37;100.00;103467.81;4753249;30;20032;-78
2022/01/28 07:58:17;;;;;;;15.93;6.88;;;;;;;0.33;100.00;103471.13;4752976;30;20040;-76
2022/01/28 08:00:42;;;;;;;23.20;6.88;;;;;;;0.38;100.00;103479.69;4765146;30;20030;-77
2022/01/28 08:03:08;;;;;;;15.05;6.28;;;;;;;0.13;100.00;103435.97;4757680;30;20063;-78
2022/01/28 08:05:34;;;;;;;20.02;7.43;;;;;;;0.35;100.00;103475.41;4753084;30;20066;-79
2022/01/28 08:08:04;;;;;;;16.05;6.20;;;;;;;0.40;100.00;103483.13;4753079;30;20036;-77
2022/01/28 08:10:30;;;;;;;25.55;9.70;;;;;;;0.28;100.00;103461.69;4754145;30;20062;-77
2022/01/28 08:13:02;;;;;;;22.90;10.00;;;;;;;0.44;100.00;103493.41;4753321;30;20478;-77
2022/01/28 08:15:27;;;;;;;28.25;9.68;;;;;;;0.41;100.00;103485.72;4753170;30;20052;-76
2022/01/28 08:17:53;;;;;;;21.98;10.13;;;;;;;0.42;100.00;103476.41;4771011;30;20524;-78
2022/01/28 08:20:18;;;;;;;20.58;7.63;;;;;;;0.56;100.00;103495.34;4770520;30;20035;-77
2022/01/28 08:22:49;;;;;;;22.92;7.75;;;;;;;0.58;100.00;103496.22;4769841;30;20063;-79
2022/01/28 08:25:16;;;;;;;19.98;6.35;;;;;;;0.74;100.00;103527.94;4770707;30;20035;-79
2022/01/28 08:27:46;;;;;;;18.92;7.20;;;;;;;0.80;100.00;103522.97;4770566;30;20044;-80
2022/01/28 08:30:13;;;;;;;19.75;6.18;;;;;;;0.84;100.00;103519.66;4770531;30;20491;-79
2022/01/28 08:32:42;;;;;;;21.38;7.97;;;;;;;0.62;100.00;103485.31;4770412;30;20468;-81
2022/01/28 08:35:08;;;;;;;20.08;7.72;;;;;;;0.90;100.00;103526.56;4770280;30;20031;-80
2022/01/28 08:37:34;;;;;;;24.88;7.90;;;;;;;1.01;100.00;103523.41;4770053;30;20047;-79
2022/01/28 08:40:00;;;;;;;27.70;7.75;;;;;;;0.93;100.00;103499.50;4783522;30;20059;-79
2022/01/28 08:42:26;;;;;;;20.10;6.35;;;;;;;1.13;100.00;103512.59;4788134;30;20043;-80
2022/01/28 08:44:51;;;;;;;20.17;6.97;;;;;;;1.30;100.00;103523.13;4788052;30;20110;-79
2022/01/28 08:47:17;;;;;;;25.10;7.53;;;;;;;1.21;100.00;103495.81;4788141;30;20099;-80
2022/01/28 08:49:42;;;;;;;23.70;7.25;;;;;;;1.47;100.00;103519.16;4788263;30;20031;-79
2022/01/28 08:52:08;;;;;;;19.95;6.57;;;;;;;1.55;100.00;103519.31;4788180;30;20031;-79
2022/01/28 08:54:48;;;;;;;21.95;7.32;;;;;;;0.52;100.00;103344.44;4914412;24;20043;-77
2022/01/28 08:57:20;;;;;;;21.17;6.77;;;;;;;1.18;100.00;103455.03;4769374;30;20420;-78
2022/01/28 09:00:22;;;;;;;;;;;;;;;1.65;100.00;103537.31;4770687;30;20304;-78
2022/01/28 09:03:22;;;;;;;22.48;7.00;;;;;;;1.73;100.00;103533.22;4770033;30;19925;-81
2022/01/28 09:35:30;;;;;;;20.63;8.75;;;;;;;2.17;100.00;103527.16;4895162;24;20105;-77
2022/01/28 09:37:56;;;;;;;18.88;7.95;;;;;;;2.43;100.00;103556.44;4787966;30;20040;-77
2022/01/28 09:40:23;;;;;;;27.08;8.75;;;;;;;2.50;100.00;103542.06;4787757;30;20028;-79
2022/01/28 09:42:51;;;;;;;22.80;9.32;;;;;;;2.57;100.00;103551.53;4787648;30;20036;-78
2022/01/28 09:45:20;;;;;;;26.30;9.93;;;;;;;2.68;100.00;103549.13;4786516;29;20038;-77
2022/01/28 09:47:46;;;;;;;25.08;10.30;;;;;;;2.57;100.00;103520.94;4787804;30;20074;-76
2022/01/28 09:50:13;;;;;;;24.88;10.05;;;;;;;2.79;100.00;103553.53;4788013;30;20039;-77
2022/01/28 09:52:39;;;;;;;19.92;9.63;;;;;;;2.86;100.00;103557.03;4787647;30;20114;-77
2022/01/28 09:55:05;;;;;;;30.58;10.43;;;;;;;2.80;100.00;103544.19;4787562;30;20092;-77
2022/01/28 09:57:31;;;;;;;21.60;11.75;;;;;;;2.97;100.00;103569.94;4787271;30;20042;-79
2022/01/28 09:59:57;;;;;;;29.98;11.32;;;;;;;2.95;100.00;103559.72;4787491;29;20039;-77
2022/01/28 10:02:50;;;;;;;24.02;9.90;;;;;;;3.06;100.00;103567.50;4787607;30;20032;-77
2022/01/28 10:05:26;;;;;;;22.98;10.75;;;;;;;3.11;100.00;103566.69;4787670;30;20024;-78
2022/01/28 10:08:17;;;;;;;30.48;11.02;;;;;;;3.19;100.00;103571.91;4787539;30;20051;-78
2022/01/28 10:10:50;;;;;;;19.92;10.75;;;;;;;3.23;100.00;103565.13;4787339;30;20051;-76
2022/01/28 10:13:22;;;;;;;26.45;10.48;;;;;;;3.26;100.00;103567.72;4787156;30;20039;-77
2022/01/28 10:15:58;;;;;;;28.98;12.55;;;;;;;3.15;100.00;103537.81;4787391;29;20038;-77
2022/01/28 10:18:35;;;;;;;24.25;12.57;;;;;;;3.36;100.00;103570.41;4790052;30;20426;-77
2022/01/28 10:21:00;;;;;;;29.40;12.60;;;;;;;3.14;100.00;103519.91;4790675;30;20042;-76
2022/01/28 10:23:26;;;;;;;25.85;12.05;;;;;;;3.23;100.00;103522.56;4790749;30;20035;-76
2022/01/28 10:25:56;;;;;;;30.70;12.02;;;;;;;3.44;100.00;103545.78;4790128;30;20511;-74
2022/01/28 10:28:22;;;;;;;27.33;11.73;;;;;;;3.61;100.00;103568.09;4790564;30;20076;-76
2022/01/28 10:30:56;;;;;;;26.27;10.98;;;;;;;2.60;100.00;103398.50;4805743;24;20146;-79
2022/01/28 10:33:27;;;;;;;30.35;11.55;;;;;;;3.01;100.00;103459.34;4790223;30;20110;-77
2022/01/28 10:36:00;;;;;;;28.02;12.20;;;;;;;2.78;100.00;103408.94;4790323;30;20042;-77
2022/01/28 10:39:14;;;;;;;25.90;10.68;;;;;;;3.85;100.00;103583.66;4790504;30;20492;-79
2022/01/28 10:41:59;;;;;;;23.35;10.77;;;;;;;3.45;100.00;103504.09;4789487;29;20035;-78
2022/01/28 10:44:26;;;;;;;26.75;10.93;;;;;;;3.97;100.00;103583.78;4790090;30;20023;-78
2022/01/28 10:46:58;;;;;;;26.85;9.77;;;;;;;4.01;99.62;103577.81;4790189;30;20088;-79
2022/01/28 10:49:33;;;;;;;29.92;9.88;;;;;;;4.12;99.66;103579.63;4790041;30;20034;-78
2022/01/28 10:52:05;;;;;;;20.58;8.68;;;;;;;4.15;98.84;103569.44;4790118;30;20200;-77
2022/01/28 10:54:30;;;;;;;25.77;8.90;;;;;;;4.21;99.17;103554.09;4789648;30;20024;-77
2022/01/28 10:57:01;;;;;;;20.58;7.88;;;;;;;4.28;98.95;103558.44;4773714;30;20059;-77
2022/01/28 10:59:30;;;;;;;22.85;7.63;;;;;;;4.34;98.16;103560.19;4789949;30;20027;-77
2022/01/28 11:01:56;;;;;;;21.30;6.70;;;;;;;4.22;98.08;103531.09;4788470;30;20396;-76
2022/01/28 11:04:23;;;;;;;27.83;8.32;;;;;;;4.46;97.80;103557.72;4789920;30;20455;-76
2022/01/28 11:06:50;;;;;;;23.45;7.05;;;;;;;4.52;97.65;103550.94;4788706;30;20484;-76
2022/01/28 11:09:18;;;;;;;23.00;7.50;;;;;;;4.46;97.04;103529.56;4789588;30;20042;-78
2022/01/28 11:12:03;;;;;;;18.30;5.25;;;;;;;4.32;96.57;103509.00;4789252;29;20027;-77
2022/01/28 11:14:28;;;;;;;22.02;5.85;;;;;;;4.38;95.89;103500.50;4773488;30;20038;-77
2022/01/28 11:16:54;;;;;;;21.83;6.00;;;;;;;4.36;95.33;103484.31;4789659;30;20027;-78
2022/01/28 11:19:23;;;;;;;20.15;5.30;;;;;;;4.71;93.55;103538.22;4789683;30;20365;-75
2022/01/28 11:21:56;;;;;;;25.70;5.68;;;;;;;4.76;94.15;103518.63;4789530;30;20095;-76
2022/01/28 11:29:47;;;;;;;16.80;6.05;;;;;;;5.56;92.81;103507.72;4800087;27;20054;-81
2022/01/28 11:32:15;;;;;;;18.60;5.68;;;;;;;5.87;91.23;103508.59;4807360;29;20396;-80
2022/01/28 11:35:08;;;;;;;17.60;4.45;;;;;;;6.22;91.34;103510.31;4807418;29;20101;-79
2022/01/28 11:37:34;;;;;;;21.00;4.72;;;;;;;6.41;89.33;103500.84;4804922;29;20045;-80
2022/01/28 11:40:12;;;;;;;15.27;4.50;;;;;;;6.45;87.04;103500.81;4807566;29;20031;-79
2022/01/28 11:42:37;;;;;;;16.20;3.88;;;;;;;6.49;87.25;103494.84;4807160;29;20142;-80
2022/01/28 11:45:06;;;;;;;20.60;4.30;;;;;;;6.42;85.49;103489.72;4807219;29;20060;-80
2022/01/28 11:47:34;;;;;;;8.18;1.80;;;;;;;6.40;84.11;103494.00;4807364;29;20066;-81
2022/01/28 11:50:05;;;;;;;9.95;1.90;;;;;;;6.35;83.59;103495.72;4807279;29;20042;-81
2022/01/28 11:52:33;;;;;;;16.55;2.60;;;;;;;6.08;84.52;103455.59;4806856;29;20037;-84
2022/01/28 11:55:23;;;;;;;15.02;2.90;;;;;;;6.44;84.50;103499.13;4806965;29;20468;-81
2022/01/28 11:58:09;;;;;;;15.50;2.97;;;;;;;6.43;83.65;103494.84;4797686;29;20058;-81
2022/01/28 12:00:44;;;;;;;19.40;3.65;;;;;;;6.45;82.36;103487.13;4790216;29;20047;-80
2022/01/28 12:03:23;;;;;;;11.68;3.42;;;;;;;6.40;82.65;103481.19;4807014;29;20395;-80
2022/01/28 12:05:54;;;;;;;15.02;3.20;;;;;;;6.52;82.05;103493.97;4806373;29;20067;-80
2022/01/28 12:08:20;;;;;;;12.60;2.90;;;;;;;6.38;81.90;103490.56;4806660;29;20030;-78
2022/01/28 12:13:20;;;;;;;13.73;2.97;;;;;;;6.42;81.53;103459.78;4769162;30;20097;-81
2022/01/28 12:16:11;;;;;;;14.95;3.35;;;;;;;6.68;80.81;103480.19;4770724;30;20032;-82
2022/01/28 12:18:53;;;;;;;10.60;3.28;;;;;;;6.81;80.92;103471.59;4770796;30;20034;-83
2022/01/28 12:21:22;;;;;;;18.15;3.58;;;;;;;6.76;79.93;103469.91;4754810;30;20051;-77
2022/01/28 12:24:22;;;;;;;10.68;3.33;;;;;;;6.80;81.31;103469.03;4770596;30;20032;-80
2022/01/28 12:34:33;;;;;;;14.27;3.00;;;;;;;6.43;79.78;103425.53;3120893;24;20056;-80
2022/01/28 12:36:59;;;;;;;17.33;3.63;;;;;;;6.56;80.16;103442.59;4788564;30;20032;-87
2022/01/28 12:39:38;;;;;;;13.85;3.33;;;;;;;6.47;80.65;103432.38;4788500;30;20023;-81
2022/01/28 12:42:11;;;;;;;16.95;4.10;;;;;;;6.54;81.37;103435.75;4788368;30;20027;-80
2022/01/28 12:44:38;;;;;;;16.23;4.25;;;;;;;6.44;80.17;103409.28;4790607;29;20493;-80
2022/01/28 12:47:11;;;;;;;14.50;4.55;;;;;;;6.57;80.80;103422.91;4806175;29;20118;-80
2022/01/28 12:49:38;;;;;;;11.10;4.20;;;;;;;6.66;79.62;103427.16;4806163;29;20117;-80
2022/01/28 12:52:06;;;;;;;14.90;4.25;;;;;;;6.78;78.74;103427.94;4806776;29;20118;-80
2022/01/28 12:54:38;;;;;;;14.52;4.57;;;;;;;6.85;79.66;103421.91;4806231;29;20041;-80
2022/01/28 12:57:05;;;;;;;11.32;4.40;;;;;;;6.78;79.39;103419.38;4806054;29;20109;-80
2022/01/28 12:59:34;;;;;;;16.88;4.95;;;;;;;6.60;78.01;103395.53;4806336;29;20070;-81
2022/01/28 13:01:59;;;;;;;23.75;5.53;;;;;;;6.63;78.41;103398.94;4806035;29;20059;-80
2022/01/28 13:04:37;;;;;;;16.52;4.88;;;;;;;6.72;77.97;103425.41;4804683;29;20074;-80
2022/01/28 13:09:49;;;;;;;14.15;4.75;;;;;;;6.43;79.19;103378.50;4806282;29;20411;-80
2022/01/28 13:12:25;;;;;;;15.15;5.15;;;;;;;6.50;79.05;103386.16;4805993;29;20098;-80
2022/01/28 13:14:50;;;;;;;18.00;6.07;;;;;;;6.58;78.73;103410.06;4804407;29;20039;-81
2022/01/28 13:17:21;;;;;;;12.65;6.07;;;;;;;6.19;79.50;103352.06;4789672;29;20114;-80
2022/01/28 13:20:14;;;;;;;13.13;6.80;;;;;;;6.42;79.35;103393.03;4806000;29;20035;-81
2022/01/28 13:22:39;;;;;;;19.98;6.68;;;;;;;6.33;79.62;103372.56;4805960;29;20382;-80
2022/01/28 13:25:38;;;;;;;18.90;7.00;;;;;;;6.24;80.97;103368.31;4806161;29;20065;-81
2022/01/28 13:28:11;;;;;;;17.00;7.43;;;;;;;6.36;80.69;103385.38;4750020;30;20048;-81
2022/01/28 13:30:39;;;;;;;15.77;7.72;;;;;;;6.29;80.35;103378.53;4750223;30;20051;-80
2022/01/28 13:33:10;;;;;;;16.90;7.63;;;;;;;6.14;81.00;103350.41;4750264;30;20036;-79
2022/01/28 13:35:37;;;;;;;19.88;7.22;;;;;;;6.36;80.90;103380.22;4750006;30;20055;-78
2022/01/28 13:38:14;;;;;;;18.23;7.78;;;;;;;6.26;80.88;103358.03;4750144;30;20056;-79
2022/01/28 13:40:39;;;;;;;16.48;7.97;;;;;;;6.40;80.71;103378.53;4750244;30;20466;-80
2022/01/28 13:43:18;;;;;;;14.88;8.13;;;;;;;6.43;81.15;103371.66;4749982;30;20048;-80
2022/01/28 13:46:04;;;;;;;17.45;8.25;;;;;;;6.40;80.54;103368.25;4749951;30;20111;-79
2022/01/28 13:48:33;;;;;;;22.80;7.10;;;;;;;6.48;79.33;103375.03;4749807;30;20517;-82
2022/01/28 13:51:14;;;;;;;20.15;7.45;;;;;;;6.52;80.10;103369.03;4749811;30;20166;-82
2022/01/28 13:54:27;;;;;;;20.02;7.57;;;;;;;6.58;80.46;103368.13;4752963;30;20033;-82
2022/01/28 13:56:47;;;;;;;18.70;8.30;;;;;;;6.58;80.62;103363.84;4752147;30;20040;-82